createdAt,value
2023-01-12T00:03:20.316Z,24.30
2023-01-12T00:08:24.005Z,22.03
2023-01-12T00:13:34.087Z,21.73
2023-01-12T00:18:38.057Z,21.20
2023-01-12T00:23:45.534Z,23.17
2023-01-12T00:28:51.532Z,20.50
2023-01-12T00:33:55.335Z,20.93
2023-01-12T00:38:59.094Z,20.73
2023-01-12T00:44:24.584Z,23.20
2023-01-12T00:49:28.257Z,20.50
2023-01-12T00:54:32.306Z,24.53
2023-01-12T00:59:45.875Z,21.77
2023-01-12T01:04:52.338Z,27.33
2023-01-12T01:09:56.066Z,21.80
2023-01-12T01:14:59.996Z,23.53
2023-01-12T01:20:04.873Z,23.53
2023-01-12T01:25:10.299Z,24.57
2023-01-12T01:30:18.667Z,25.80
2023-01-12T01:35:22.376Z,28.53
2023-01-12T01:40:26.117Z,25.17
2023-01-12T01:45:30.033Z,25.83
2023-01-12T01:50:38.461Z,21.60
2023-01-12T01:55:59.717Z,23.97
2023-01-12T02:01:03.728Z,23.77
2023-01-12T02:06:09.146Z,22.00
2023-01-12T02:11:33.401Z,22.83
2023-01-12T02:16:41.810Z,23.07
2023-01-12T02:22:10.947Z,22.90
2023-01-12T02:27:47.905Z,24.87
2023-01-12T02:33:32.620Z,25.47
2023-01-12T02:38:44.925Z,22.80
2023-01-12T02:43:48.737Z,26.30
2023-01-12T02:49:04.812Z,23.13
2023-01-12T02:54:13.081Z,24.00
2023-01-12T02:59:26.586Z,22.57
2023-01-12T03:04:34.184Z,21.63
2023-01-12T03:09:45.619Z,22.60
2023-01-12T03:14:51.967Z,22.07
2023-01-12T03:20:02.044Z,24.07
2023-01-12T03:25:11.857Z,22.13
2023-01-12T03:30:25.661Z,21.90
2023-01-12T03:35:40.947Z,27.23
2023-01-12T03:40:51.739Z,24.13
2023-01-12T03:46:28.222Z,25.13
2023-01-12T03:51:43.178Z,25.17
2023-01-12T03:57:07.523Z,27.47
2023-01-12T04:02:16.106Z,22.97
2023-01-12T04:07:19.985Z,25.47
2023-01-12T04:12:29.934Z,24.43
2023-01-12T04:17:37.836Z,21.17
2023-01-12T04:22:44.397Z,22.80
2023-01-12T04:27:53.976Z,24.43
2023-01-12T04:33:01.462Z,23.33
2023-01-12T04:38:09.568Z,26.50
2023-01-12T04:43:16.163Z,21.37
2023-01-12T04:48:19.920Z,20.37
2023-01-12T04:53:25.280Z,26.03
2023-01-12T04:59:04.177Z,20.87
2023-01-12T05:04:08.310Z,21.30
2023-01-12T05:09:38.084Z,19.90
2023-01-12T05:14:47.653Z,22.10
2023-01-12T05:19:51.726Z,27.60
2023-01-12T05:31:15.742Z,24.70
2023-01-12T05:36:26.451Z,29.67
2023-01-12T05:41:32.174Z,33.73
2023-01-12T05:46:40.944Z,29.50
2023-01-12T05:51:59.742Z,25.37
2023-01-12T06:03:58.047Z,28.97
2023-01-12T06:09:02.004Z,23.47
2023-01-12T06:14:07.064Z,25.27
2023-01-12T06:19:13.057Z,25.83
2023-01-12T06:24:16.996Z,23.87
2023-01-12T06:29:24.582Z,19.17
2023-01-12T06:34:35.812Z,21.43
2023-01-12T06:39:40.868Z,19.83
2023-01-12T06:44:49.375Z,17.80
2023-01-12T06:49:53.117Z,16.10
2023-01-12T06:54:57.296Z,25.63
2023-01-12T07:00:00.747Z,14.67
2023-01-12T07:05:04.429Z,19.33
2023-01-12T07:10:08.443Z,19.70
2023-01-12T07:15:12.001Z,15.57
2023-01-12T07:20:15.585Z,20.33
2023-01-12T07:25:18.893Z,16.97
2023-01-12T07:30:24.184Z,18.03
2023-01-12T07:35:27.534Z,17.93
2023-01-12T07:40:31.149Z,16.17
2023-01-12T07:45:35.166Z,13.27
2023-01-12T07:50:38.896Z,17.37
2023-01-12T07:55:44.273Z,16.13
2023-01-12T08:00:47.503Z,17.67
2023-01-12T08:05:50.791Z,14.87
2023-01-12T08:10:54.493Z,16.67
2023-01-12T08:16:04.605Z,16.60
2023-01-12T08:21:13.227Z,14.93
2023-01-12T08:27:23.864Z,15.60
2023-01-12T08:32:58.633Z,14.60
2023-01-12T08:39:37.662Z,14.53
2023-01-12T08:44:05.195Z,15.57
2023-01-12T08:49:11.650Z,12.67
2023-01-12T08:54:22.748Z,13.27
2023-01-12T08:59:32.425Z,9.43
2023-01-12T09:04:40.366Z,12.57
2023-01-12T09:09:43.886Z,12.20
2023-01-12T09:14:48.180Z,14.43
2023-01-12T09:19:51.829Z,11.30
2023-01-12T09:25:07.660Z,12.40
2023-01-12T09:30:12.134Z,8.73
2023-01-12T09:35:16.104Z,8.10
2023-01-12T09:40:20.424Z,7.00
2023-01-12T09:45:43.986Z,6.27
2023-01-12T09:51:06.164Z,12.57
2023-01-12T09:56:34.217Z,7.53
2023-01-12T10:01:38.639Z,7.57
2023-01-12T10:06:42.765Z,9.17
2023-01-12T10:12:06.001Z,7.73
2023-01-12T10:17:50.307Z,7.87
2023-01-12T10:23:13.415Z,10.50
2023-01-12T10:28:20.678Z,6.90
2023-01-12T10:33:32.244Z,7.50
2023-01-12T10:38:43.916Z,7.47
2023-01-12T10:44:00.988Z,7.60
2023-01-12T10:49:24.970Z,11.67
2023-01-12T10:54:33.308Z,7.10
2023-01-12T10:59:39.743Z,6.60
2023-01-12T11:04:52.959Z,5.93
2023-01-12T11:10:19.437Z,9.57
2023-01-12T11:15:23.729Z,7.50
2023-01-12T11:20:40.057Z,5.97
2023-01-12T11:25:50.134Z,11.73
2023-01-12T11:31:02.134Z,5.57
2023-01-12T11:36:16.325Z,6.17
2023-01-12T11:42:04.291Z,9.33
2023-01-12T11:47:13.612Z,6.13
2023-01-12T11:52:17.928Z,8.00
2023-01-12T11:57:36.578Z,4.27
2023-01-12T12:02:51.657Z,11.70
2023-01-12T12:07:58.507Z,6.30
2023-01-12T12:13:16.092Z,7.33
2023-01-12T12:18:32.313Z,6.33
2023-01-12T12:23:54.830Z,10.03
2023-01-12T12:29:29.561Z,7.40
2023-01-12T12:34:58.749Z,8.30
2023-01-12T12:40:58.622Z,12.03
2023-01-12T12:46:34.071Z,12.20
2023-01-12T12:51:51.531Z,14.37
2023-01-12T12:56:56.885Z,5.03
2023-01-12T13:02:02.899Z,8.30
2023-01-12T13:07:07.985Z,7.77
2023-01-12T13:12:33.206Z,7.90
2023-01-12T13:17:45.848Z,8.87
2023-01-12T13:22:57.406Z,12.23
2023-01-12T13:28:21.318Z,10.63
2023-01-12T13:33:29.883Z,15.10
2023-01-12T13:39:25.466Z,15.33
2023-01-12T13:44:37.825Z,13.30
2023-01-12T13:49:58.655Z,14.30
2023-01-12T13:56:04.350Z,13.10
2023-01-12T14:01:23.761Z,15.47
2023-01-12T14:06:52.543Z,12.83
2023-01-12T14:12:09.101Z,12.80
2023-01-12T14:17:46.497Z,11.40
2023-01-12T14:22:53.024Z,13.40
2023-01-12T14:27:58.284Z,8.67
2023-01-12T14:33:30.282Z,12.93
2023-01-12T14:38:35.549Z,11.50
2023-01-12T14:43:57.483Z,7.70
2023-01-12T14:49:33.336Z,11.37
2023-01-12T14:54:37.534Z,9.67
2023-01-12T15:00:10.686Z,11.07
2023-01-12T15:05:27.089Z,6.30
2023-01-12T15:10:38.554Z,8.50
2023-01-12T15:16:11.492Z,15.07
2023-01-12T15:21:34.418Z,10.37
2023-01-12T15:26:38.591Z,13.33
2023-01-12T15:31:46.601Z,25.70
2023-01-12T15:36:50.324Z,21.70
2023-01-12T15:42:12.736Z,15.23
2023-01-12T15:47:18.675Z,13.97
2023-01-12T15:52:25.556Z,12.50
2023-01-12T15:57:29.006Z,15.10
2023-01-12T16:02:38.233Z,12.53
2023-01-12T16:07:43.879Z,11.70
2023-01-12T16:12:48.885Z,13.37
2023-01-12T16:17:53.050Z,17.43
2023-01-12T16:22:58.046Z,21.93
2023-01-12T16:28:01.839Z,10.67
2023-01-12T16:33:05.655Z,10.33
2023-01-12T16:38:09.400Z,21.63
2023-01-12T16:43:13.603Z,28.27
2023-01-12T16:48:17.528Z,14.83
2023-01-12T16:53:20.838Z,19.43
2023-01-12T16:58:25.725Z,15.23
2023-01-12T17:03:30.163Z,16.20
2023-01-12T17:08:34.619Z,14.30
2023-01-12T17:13:39.030Z,12.63
2023-01-12T17:18:46.584Z,13.37
2023-01-12T17:23:50.633Z,14.47
2023-01-12T17:28:55.972Z,14.77
2023-01-12T17:34:01.086Z,11.93
2023-01-12T17:39:05.006Z,9.90
2023-01-12T17:44:08.995Z,7.57
2023-01-12T17:49:13.380Z,9.47
2023-01-12T17:54:18.037Z,15.30
2023-01-12T17:59:35.265Z,13.63
2023-01-12T18:05:03.251Z,12.23
2023-01-12T18:10:12.896Z,11.33
2023-01-12T18:15:17.659Z,14.93
2023-01-12T18:20:21.350Z,12.33
2023-01-12T18:25:27.628Z,16.60
2023-01-12T18:36:28.332Z,15.70
2023-01-12T18:41:51.355Z,10.23
2023-01-12T18:47:21.624Z,10.77
2023-01-12T18:52:44.380Z,10.03
2023-01-12T18:57:51.259Z,10.57
2023-01-12T19:02:56.260Z,8.63
2023-01-12T19:08:21.067Z,10.97
2023-01-12T19:13:46.304Z,10.03
2023-01-12T19:18:55.385Z,8.63
2023-01-12T19:24:18.533Z,13.40
2023-01-12T19:29:22.643Z,13.53
2023-01-12T19:34:26.592Z,8.17
2023-01-12T19:40:00.296Z,8.97
2023-01-12T19:45:11.017Z,9.57
2023-01-12T19:50:25.913Z,10.10
2023-01-12T19:55:37.169Z,10.33
2023-01-12T20:01:01.145Z,13.80
2023-01-12T20:06:12.397Z,15.30
2023-01-12T20:11:26.249Z,14.87
2023-01-12T20:16:34.855Z,9.67
2023-01-12T20:21:40.247Z,10.37
2023-01-12T20:26:44.337Z,8.33
2023-01-12T20:31:50.767Z,9.30
2023-01-12T20:36:56.291Z,7.60
2023-01-12T20:42:00.497Z,10.33
2023-01-12T20:47:04.771Z,9.23
2023-01-12T20:52:09.236Z,7.20
2023-01-12T20:57:13.643Z,11.20
2023-01-12T21:02:23.835Z,9.67
2023-01-12T21:07:31.312Z,11.47
2023-01-12T21:12:34.926Z,10.87
2023-01-12T21:17:39.592Z,9.00
2023-01-12T21:22:44.245Z,12.33
2023-01-12T21:27:48.435Z,12.20
2023-01-12T21:32:55.684Z,16.33
2023-01-12T21:38:00.085Z,7.10
2023-01-12T21:43:09.872Z,9.80
2023-01-12T21:48:17.075Z,6.50
2023-01-12T21:53:23.019Z,9.80
2023-01-12T21:58:28.031Z,9.67
2023-01-12T22:03:32.631Z,7.67
2023-01-12T22:08:38.077Z,7.93
2023-01-12T22:13:42.104Z,6.23
2023-01-12T22:18:49.802Z,5.30
2023-01-12T22:23:56.576Z,7.93
2023-01-12T22:29:00.332Z,7.33
2023-01-12T22:34:07.796Z,7.23
2023-01-12T22:39:14.765Z,11.83
2023-01-12T22:44:18.109Z,8.80
2023-01-12T22:49:22.294Z,5.33
2023-01-12T22:54:26.093Z,9.07
2023-01-12T22:59:29.634Z,6.67
2023-01-12T23:04:33.536Z,9.53
2023-01-12T23:09:39.966Z,8.67
2023-01-12T23:14:43.866Z,6.00
2023-01-12T23:19:47.466Z,8.00
2023-01-12T23:24:51.493Z,4.80
2023-01-12T23:30:09.435Z,8.20
2023-01-12T23:35:23.788Z,7.90
2023-01-12T23:41:21.824Z,7.90
2023-01-12T23:46:30.989Z,5.27
2023-01-12T23:51:43.527Z,6.13
2023-01-12T23:57:25.765Z,8.47
